VLG4537 LEGR-LXGB
Flight info
| Callsign | VLG4537 |
|---|---|
| Flight time | 0h 23m |
| Altitude | 17000 |
| Route | GDA DCT AGP DCT PIMOS |
| Aircraft | A320/M-SDE3FGHIRWY/LB1 |
Departure
| Time | 2026-05-06 18:45 |
|---|---|
| Airport | F.G.L. Airport Granada-Jaén Airport (LEGR) |
Arrival
| Time | 2026-05-06 19:08 |
|---|---|
| Airport | Gibraltar Airport (LXGB) |
| Time | Latitude | Longitude | Altitude | Speed | Heading |
|---|---|---|---|---|---|
| 2026-05-06 18:26 | 37.18567 | -3.77683 | 1871 ft | 0 kts | 270° |
| 2026-05-06 18:41 | 37.18568 | -3.77697 | 1871 ft | 4 kts | 271° |
| 2026-05-06 18:41 | 37.18594 | -3.77747 | 1870 ft | 10 kts | 333° |
| 2026-05-06 18:41 | 37.18672 | -3.77740 | 1863 ft | 13 kts | 17° |
| 2026-05-06 18:42 | 37.18710 | -3.77624 | 1867 ft | 18 kts | 90° |
| 2026-05-06 18:42 | 37.18709 | -3.77466 | 1867 ft | 19 kts | 90° |
| 2026-05-06 18:42 | 37.18708 | -3.77295 | 1868 ft | 21 kts | 90° |
| 2026-05-06 18:42 | 37.18714 | -3.77097 | 1866 ft | 24 kts | 88° |
| 2026-05-06 18:43 | 37.18717 | -3.76877 | 1865 ft | 26 kts | 89° |
| 2026-05-06 18:43 | 37.18720 | -3.76631 | 1860 ft | 30 kts | 89° |
| 2026-05-06 18:43 | 37.18719 | -3.76401 | 1859 ft | 25 kts | 91° |
| 2026-05-06 18:43 | 37.18722 | -3.76202 | 1853 ft | 16 kts | 86° |
| 2026-05-06 18:44 | 37.18820 | -3.76137 | 1851 ft | 19 kts | 351° |
| 2026-05-06 18:44 | 37.18884 | -3.76246 | 1852 ft | 20 kts | 270° |
| 2026-05-06 18:44 | 37.18882 | -3.76708 | 1865 ft | 96 kts | 269° |
| 2026-05-06 18:44 | 37.18869 | -3.77875 | 1881 ft | 166 kts | 269° |
| 2026-05-06 18:45 | 37.18851 | -3.79453 | 2348 ft | 193 kts | 269° |
| 2026-05-06 18:45 | 37.18831 | -3.81241 | 3055 ft | 217 kts | 269° |
| 2026-05-06 18:45 | 37.18784 | -3.83241 | 3840 ft | 241 kts | 266° |
| 2026-05-06 18:45 | 37.18737 | -3.84672 | 4437 ft | 254 kts | 267° |
| 2026-05-06 18:46 | 37.18636 | -3.87681 | 5913 ft | 265 kts | 268° |
| 2026-05-06 18:46 | 37.18561 | -3.90023 | 7017 ft | 272 kts | 267° |
| 2026-05-06 18:46 | 37.18489 | -3.92425 | 8085 ft | 280 kts | 267° |
| 2026-05-06 18:46 | 37.18419 | -3.94900 | 9166 ft | 288 kts | 266° |
| 2026-05-06 18:47 | 37.18139 | -3.97401 | 10204 ft | 293 kts | 251° |
| 2026-05-06 18:47 | 37.17268 | -3.99699 | 11309 ft | 292 kts | 233° |
| 2026-05-06 18:47 | 37.15882 | -4.01555 | 12441 ft | 295 kts | 219° |
| 2026-05-06 18:47 | 37.14215 | -4.03236 | 13027 ft | 319 kts | 218° |
| 2026-05-06 18:48 | 37.12445 | -4.04997 | 13883 ft | 330 kts | 218° |
| 2026-05-06 18:48 | 37.10630 | -4.06800 | 14844 ft | 335 kts | 219° |
| 2026-05-06 18:48 | 37.08802 | -4.08619 | 15844 ft | 339 kts | 219° |
| 2026-05-06 18:48 | 37.06922 | -4.10493 | 16549 ft | 354 kts | 219° |
| 2026-05-06 18:49 | 37.04932 | -4.12487 | 16805 ft | 380 kts | 219° |
| 2026-05-06 18:49 | 37.02874 | -4.14551 | 16869 ft | 370 kts | 219° |
| 2026-05-06 18:49 | 37.00922 | -4.16499 | 16881 ft | 350 kts | 219° |
| 2026-05-06 18:49 | 36.99051 | -4.18358 | 16884 ft | 338 kts | 219° |
| 2026-05-06 18:50 | 36.97218 | -4.20180 | 16884 ft | 336 kts | 219° |
| 2026-05-06 18:50 | 36.95386 | -4.22003 | 16881 ft | 336 kts | 219° |
| 2026-05-06 18:50 | 36.93560 | -4.23823 | 16883 ft | 336 kts | 219° |
| 2026-05-06 18:50 | 36.91733 | -4.25647 | 16877 ft | 336 kts | 219° |
| 2026-05-06 18:51 | 36.89906 | -4.27467 | 16875 ft | 336 kts | 219° |
| 2026-05-06 18:51 | 36.88076 | -4.29284 | 16877 ft | 336 kts | 219° |
| 2026-05-06 18:51 | 36.86240 | -4.31104 | 16877 ft | 336 kts | 219° |
| 2026-05-06 18:51 | 36.84433 | -4.32897 | 16872 ft | 336 kts | 219° |
| 2026-05-06 18:52 | 36.82597 | -4.34717 | 16870 ft | 336 kts | 219° |
| 2026-05-06 18:52 | 36.80763 | -4.36534 | 16875 ft | 337 kts | 219° |
| 2026-05-06 18:52 | 36.78930 | -4.38349 | 16870 ft | 337 kts | 219° |
| 2026-05-06 18:52 | 36.77091 | -4.40167 | 16877 ft | 337 kts | 219° |
| 2026-05-06 18:53 | 36.75251 | -4.41985 | 16877 ft | 337 kts | 219° |
| 2026-05-06 18:53 | 36.73412 | -4.43801 | 16876 ft | 337 kts | 219° |
| 2026-05-06 18:53 | 36.71575 | -4.45616 | 16877 ft | 337 kts | 219° |
| 2026-05-06 18:53 | 36.69732 | -4.47435 | 16880 ft | 337 kts | 219° |
| 2026-05-06 18:54 | 36.67851 | -4.49175 | 16880 ft | 337 kts | 213° |
| 2026-05-06 18:54 | 36.65857 | -4.50714 | 16881 ft | 338 kts | 213° |
| 2026-05-06 18:54 | 36.63852 | -4.52250 | 16879 ft | 338 kts | 212° |
| 2026-05-06 18:54 | 36.61846 | -4.53781 | 16868 ft | 338 kts | 212° |
| 2026-05-06 18:55 | 36.59869 | -4.55290 | 16565 ft | 328 kts | 212° |
| 2026-05-06 18:55 | 36.58589 | -4.56268 | 16055 ft | 324 kts | 212° |
| 2026-05-06 18:55 | 36.56088 | -4.58181 | 15350 ft | 310 kts | 212° |
| 2026-05-06 18:55 | 36.54292 | -4.59553 | 14997 ft | 296 kts | 212° |
| 2026-05-06 18:56 | 36.52578 | -4.60863 | 14652 ft | 283 kts | 212° |
| 2026-05-06 18:56 | 36.50933 | -4.62116 | 14316 ft | 272 kts | 212° |
| 2026-05-06 18:56 | 36.49333 | -4.63332 | 14001 ft | 270 kts | 212° |
| 2026-05-06 18:56 | 36.48273 | -4.64140 | 13783 ft | 270 kts | 212° |
| 2026-05-06 18:57 | 36.46671 | -4.65360 | 13434 ft | 270 kts | 212° |
| 2026-05-06 18:57 | 36.45070 | -4.66581 | 13106 ft | 271 kts | 212° |
| 2026-05-06 18:57 | 36.43470 | -4.67802 | 12774 ft | 270 kts | 212° |
| 2026-05-06 18:57 | 36.41872 | -4.69018 | 12449 ft | 269 kts | 212° |
| 2026-05-06 18:58 | 36.40279 | -4.70227 | 12129 ft | 268 kts | 212° |
| 2026-05-06 18:58 | 36.38692 | -4.71435 | 11820 ft | 267 kts | 212° |
| 2026-05-06 18:58 | 36.37106 | -4.72642 | 11480 ft | 268 kts | 211° |
| 2026-05-06 18:58 | 36.35505 | -4.73858 | 11127 ft | 277 kts | 211° |
| 2026-05-06 18:59 | 36.33837 | -4.75122 | 10682 ft | 284 kts | 212° |
| 2026-05-06 18:59 | 36.32144 | -4.76407 | 10245 ft | 286 kts | 212° |
| 2026-05-06 18:59 | 36.30437 | -4.77702 | 9824 ft | 289 kts | 211° |
| 2026-05-06 18:59 | 36.28718 | -4.79004 | 9344 ft | 291 kts | 211° |
| 2026-05-06 19:00 | 36.26985 | -4.80314 | 8872 ft | 292 kts | 211° |
| 2026-05-06 19:00 | 36.25241 | -4.81631 | 8415 ft | 294 kts | 211° |
| 2026-05-06 19:00 | 36.23509 | -4.82941 | 7958 ft | 293 kts | 211° |
| 2026-05-06 19:00 | 36.21796 | -4.84237 | 7503 ft | 285 kts | 211° |
| 2026-05-06 19:01 | 36.20116 | -4.85506 | 7062 ft | 284 kts | 211° |
| 2026-05-06 19:01 | 36.18427 | -4.86782 | 6624 ft | 284 kts | 211° |
| 2026-05-06 19:01 | 36.16731 | -4.88063 | 6186 ft | 285 kts | 211° |
| 2026-05-06 19:01 | 36.15047 | -4.89338 | 5724 ft | 283 kts | 212° |
| 2026-05-06 19:02 | 36.13555 | -4.90918 | 5278 ft | 285 kts | 231° |
| 2026-05-06 19:02 | 36.12557 | -4.93036 | 4832 ft | 287 kts | 250° |
| 2026-05-06 19:02 | 36.12188 | -4.95109 | 4442 ft | 289 kts | 266° |
| 2026-05-06 19:02 | 36.12347 | -4.97573 | 4101 ft | 286 kts | 279° |
| 2026-05-06 19:03 | 36.12646 | -4.99972 | 3848 ft | 280 kts | 278° |
| 2026-05-06 19:03 | 36.12935 | -5.02336 | 3602 ft | 275 kts | 278° |
| 2026-05-06 19:03 | 36.13214 | -5.04653 | 3428 ft | 265 kts | 278° |
| 2026-05-06 19:03 | 36.13471 | -5.06799 | 3342 ft | 243 kts | 278° |
| 2026-05-06 19:04 | 36.13711 | -5.08812 | 3096 ft | 230 kts | 278° |
| 2026-05-06 19:04 | 36.13939 | -5.10711 | 2847 ft | 219 kts | 278° |
| 2026-05-06 19:04 | 36.14159 | -5.12546 | 2599 ft | 216 kts | 278° |
| 2026-05-06 19:04 | 36.14376 | -5.14368 | 2356 ft | 213 kts | 278° |
| 2026-05-06 19:05 | 36.14589 | -5.16168 | 2113 ft | 209 kts | 278° |
| 2026-05-06 19:05 | 36.14796 | -5.17911 | 2005 ft | 200 kts | 278° |
| 2026-05-06 19:05 | 36.14994 | -5.19557 | 2001 ft | 189 kts | 278° |
| 2026-05-06 19:05 | 36.15183 | -5.21134 | 2002 ft | 183 kts | 279° |
| 2026-05-06 19:06 | 36.15372 | -5.22708 | 2009 ft | 185 kts | 278° |
| 2026-05-06 19:06 | 36.15517 | -5.24244 | 2010 ft | 169 kts | 274° |
| 2026-05-06 19:06 | 36.15500 | -5.25651 | 1843 ft | 162 kts | 266° |
| 2026-05-06 19:06 | 36.15406 | -5.26981 | 1610 ft | 148 kts | 265° |
| 2026-05-06 19:07 | 36.15343 | -5.28170 | 1321 ft | 131 kts | 267° |
| 2026-05-06 19:07 | 36.15302 | -5.29297 | 948 ft | 133 kts | 269° |
| 2026-05-06 19:07 | 36.15272 | -5.30451 | 717 ft | 134 kts | 270° |
| 2026-05-06 19:07 | 36.15247 | -5.31593 | 481 ft | 132 kts | 266° |
| 2026-05-06 19:08 | 36.15212 | -5.32706 | 245 ft | 128 kts | 265° |
| 2026-05-06 19:08 | 36.15160 | -5.33747 | 113 ft | 118 kts | 267° |
| 2026-05-06 19:08 | 36.15128 | -5.34717 | 22 ft | 101 kts | 268° |
| 2026-05-06 19:08 | 36.15111 | -5.35245 | 20 ft | 18 kts | 267° |
| 2026-05-06 19:09 | 36.15113 | -5.35339 | 20 ft | 20 kts | 280° |
| 2026-05-06 19:09 | 36.15099 | -5.35404 | 20 ft | 6 kts | 103° |
| 2026-05-06 19:09 | 36.15099 | -5.35343 | 22 ft | 9 kts | 86° |
| 2026-05-06 19:09 | 36.15107 | -5.35222 | 20 ft | 20 kts | 85° |
| 2026-05-06 19:10 | 36.15116 | -5.35029 | 20 ft | 24 kts | 88° |
| 2026-05-06 19:10 | 36.15125 | -5.34812 | 19 ft | 24 kts | 86° |
| 2026-05-06 19:10 | 36.15168 | -5.34685 | 19 ft | 14 kts | 17° |
| 2026-05-06 19:10 | 36.15229 | -5.34634 | 18 ft | 9 kts | 48° |
| 2026-05-06 19:11 | 36.15282 | -5.34627 | 18 ft | 7 kts | 355° |
| 2026-05-06 19:11 | 36.15304 | -5.34628 | 18 ft | 0 kts | 358° |